createdAt,value
2019-03-06T00:00:45.785Z,56.83
2019-03-06T00:03:12.826Z,54.17
2019-03-06T00:05:39.945Z,54.00
2019-03-06T00:08:07.029Z,50.50
2019-03-06T00:10:34.079Z,53.90
2019-03-06T00:13:01.231Z,55.27
2019-03-06T00:15:28.384Z,51.87
2019-03-06T00:17:55.427Z,55.30
2019-03-06T00:20:22.602Z,52.50
2019-03-06T00:22:49.726Z,54.57
2019-03-06T00:25:16.778Z,56.97
2019-03-06T00:27:43.829Z,55.27
2019-03-06T00:30:10.979Z,55.93
2019-03-06T00:32:38.025Z,55.63
2019-03-06T00:35:05.328Z,56.63
2019-03-06T00:37:32.331Z,57.17
2019-03-06T00:39:59.478Z,56.57
2019-03-06T00:42:26.526Z,57.43
2019-03-06T00:44:53.587Z,58.63
2019-03-06T00:47:20.729Z,59.47
2019-03-06T00:49:47.774Z,58.20
2019-03-06T00:52:14.821Z,53.90
2019-03-06T00:54:41.810Z,59.40
2019-03-06T00:57:08.912Z,58.37
2019-03-06T00:59:35.961Z,56.23
2019-03-06T01:02:03.114Z,55.83
2019-03-06T01:04:30.167Z,55.30
2019-03-06T01:06:58.079Z,54.00
2019-03-06T01:09:25.698Z,57.83
2019-03-06T01:11:52.739Z,58.17
2019-03-06T01:14:19.788Z,54.30
2019-03-06T01:16:46.842Z,51.00
2019-03-06T01:19:13.902Z,49.93
2019-03-06T01:21:40.932Z,53.90
2019-03-06T01:24:07.987Z,55.57
2019-03-06T01:26:35.444Z,55.37
2019-03-06T01:29:02.603Z,56.07
2019-03-06T01:31:29.639Z,54.80
2019-03-06T01:33:59.662Z,53.67
2019-03-06T01:36:28.445Z,56.60
2019-03-06T01:38:58.265Z,52.10
2019-03-06T01:41:28.381Z,47.53
2019-03-06T01:43:57.273Z,58.93
2019-03-06T01:46:24.272Z,51.83
2019-03-06T01:48:51.267Z,46.13
2019-03-06T01:51:18.322Z,34.53
2019-03-06T01:53:45.377Z,50.63
2019-03-06T01:56:12.414Z,44.27
2019-03-06T01:58:39.428Z,51.47
2019-03-06T02:01:06.716Z,47.47
2019-03-06T02:03:33.768Z,48.90
2019-03-06T02:06:00.819Z,56.53
2019-03-06T02:08:27.963Z,42.57
2019-03-06T02:10:55.114Z,33.77
2019-03-06T02:13:22.162Z,36.53
2019-03-06T02:15:49.215Z,35.30
2019-03-06T02:18:16.273Z,31.17
2019-03-06T02:20:43.307Z,30.50
2019-03-06T02:23:10.460Z,32.47
2019-03-06T02:25:37.512Z,20.87
2019-03-06T02:28:04.557Z,19.60
2019-03-06T02:30:31.709Z,18.83
2019-03-06T02:32:58.755Z,20.17
2019-03-06T02:35:25.809Z,25.43
2019-03-06T02:37:52.961Z,22.17
2019-03-06T02:40:20.006Z,21.77
2019-03-06T02:42:47.675Z,22.13
2019-03-06T02:45:15.749Z,17.97
2019-03-06T02:47:42.793Z,20.87
2019-03-06T02:50:17.332Z,19.30
2019-03-06T02:52:45.184Z,19.40
2019-03-06T02:55:12.248Z,12.97
2019-03-06T02:57:39.385Z,18.93
2019-03-06T03:00:06.536Z,15.30
2019-03-06T03:02:34.610Z,14.77
2019-03-06T03:05:01.929Z,16.90
2019-03-06T03:07:29.006Z,21.30
2019-03-06T03:10:16.695Z,17.80
2019-03-06T03:12:44.009Z,16.80
2019-03-06T03:15:11.157Z,19.30
2019-03-06T03:17:38.193Z,19.13
2019-03-06T03:20:05.249Z,16.90
2019-03-06T03:22:32.293Z,15.20
2019-03-06T03:24:59.341Z,16.80
2019-03-06T03:27:26.593Z,22.00
2019-03-06T03:29:53.641Z,17.27
2019-03-06T03:32:20.588Z,16.97
2019-03-06T03:34:47.588Z,18.87
2019-03-06T03:37:15.094Z,25.47
2019-03-06T03:39:42.148Z,21.13
2019-03-06T03:42:09.192Z,28.17
2019-03-06T03:44:36.239Z,25.40
2019-03-06T03:47:03.295Z,23.37
2019-03-06T03:49:50.993Z,27.83
2019-03-06T03:52:18.070Z,20.83
2019-03-06T03:54:45.119Z,21.07
2019-03-06T03:57:12.281Z,24.87
2019-03-06T03:59:39.269Z,22.50
2019-03-06T04:02:07.089Z,20.10
2019-03-06T04:04:34.098Z,26.83
2019-03-06T04:07:01.183Z,24.67
2019-03-06T04:09:28.236Z,30.00
2019-03-06T04:11:55.385Z,26.73
2019-03-06T04:14:22.438Z,21.60
2019-03-06T04:16:49.477Z,30.97
2019-03-06T04:19:16.538Z,27.93
2019-03-06T04:21:45.833Z,29.90
2019-03-06T04:24:12.878Z,26.83
2019-03-06T04:26:41.671Z,24.70
2019-03-06T04:29:09.327Z,25.60
2019-03-06T04:31:37.094Z,23.97
2019-03-06T04:34:04.158Z,22.97
2019-03-06T04:36:33.815Z,25.97
2019-03-06T04:39:00.901Z,23.73
2019-03-06T04:41:28.768Z,24.23
2019-03-06T04:43:56.230Z,21.80
2019-03-06T04:46:23.276Z,20.70
2019-03-06T04:48:50.328Z,17.17
2019-03-06T04:51:17.827Z,19.57
2019-03-06T04:53:44.831Z,16.63
2019-03-06T04:56:11.881Z,17.47
2019-03-06T04:58:39.337Z,16.93
2019-03-06T05:01:06.393Z,19.67
2019-03-06T05:03:33.434Z,20.27
2019-03-06T05:06:00.898Z,17.93
2019-03-06T05:08:28.043Z,19.07
2019-03-06T05:10:55.092Z,17.80
2019-03-06T05:13:22.145Z,17.33
2019-03-06T05:15:49.189Z,18.10
2019-03-06T05:18:23.003Z,17.97
2019-03-06T05:20:50.147Z,14.83
2019-03-06T05:23:17.201Z,16.83
2019-03-06T05:25:44.246Z,17.63
2019-03-06T05:28:11.293Z,19.27
2019-03-06T05:30:38.346Z,20.70
2019-03-06T05:33:06.209Z,18.37
2019-03-06T05:35:39.303Z,21.87
2019-03-06T05:38:06.417Z,21.93
2019-03-06T05:40:33.502Z,20.83
2019-03-06T05:43:00.552Z,23.40
2019-03-06T05:45:27.601Z,22.87
2019-03-06T05:47:54.666Z,37.70
2019-03-06T05:50:21.704Z,27.23
2019-03-06T05:52:48.744Z,24.80
2019-03-06T05:55:20.046Z,27.97
2019-03-06T05:57:47.153Z,28.07
2019-03-06T06:00:15.556Z,37.43
2019-03-06T06:02:42.592Z,34.90
2019-03-06T06:05:09.722Z,27.83
2019-03-06T06:07:36.871Z,27.30
2019-03-06T06:10:04.024Z,25.03
2019-03-06T06:12:31.070Z,25.67
2019-03-06T06:14:58.124Z,28.97
2019-03-06T06:17:25.183Z,29.37
2019-03-06T06:19:52.193Z,26.73
2019-03-06T06:22:22.860Z,26.70
2019-03-06T06:24:50.413Z,25.67
2019-03-06T06:27:17.456Z,26.40
2019-03-06T06:29:44.504Z,25.73
2019-03-06T06:32:12.019Z,24.53
2019-03-06T06:34:39.114Z,22.30
2019-03-06T06:37:06.575Z,24.67
2019-03-06T06:39:36.391Z,25.47
2019-03-06T06:42:03.435Z,26.67
2019-03-06T06:44:33.018Z,26.23
2019-03-06T06:47:00.411Z,22.27
2019-03-06T06:49:27.346Z,23.07
2019-03-06T06:51:55.314Z,20.97
2019-03-06T06:54:25.134Z,23.83
2019-03-06T06:56:53.155Z,24.33
2019-03-06T06:59:26.291Z,23.40
2019-03-06T07:02:07.271Z,21.97
2019-03-06T07:04:51.928Z,21.97
2019-03-06T07:07:39.815Z,24.47
2019-03-06T07:10:22.691Z,22.77
2019-03-06T07:12:54.342Z,22.07
2019-03-06T07:15:21.443Z,20.30
2019-03-06T07:18:04.235Z,20.73
2019-03-06T07:20:34.125Z,18.20
2019-03-06T07:23:02.913Z,24.23
2019-03-06T07:25:31.708Z,13.97
2019-03-06T07:28:02.546Z,13.90
2019-03-06T07:30:32.461Z,16.10
2019-03-06T07:33:00.427Z,16.17
2019-03-06T07:35:37.118Z,16.60
2019-03-06T07:38:04.161Z,17.97
2019-03-06T07:40:52.340Z,14.50
2019-03-06T07:43:42.639Z,7.13
2019-03-06T07:46:39.819Z,6.37
2019-03-06T07:49:21.697Z,2.57
2019-03-06T07:51:54.667Z,3.90
2019-03-06T07:54:24.471Z,11.87
2019-03-06T07:56:51.598Z,13.63
2019-03-06T07:59:18.709Z,8.00
2019-03-06T08:01:46.608Z,16.17
2019-03-06T08:04:13.759Z,12.77
2019-03-06T08:06:41.387Z,5.53
2019-03-06T08:09:08.486Z,11.97
2019-03-06T08:11:50.373Z,11.33
2019-03-06T08:14:35.745Z,8.13
2019-03-06T08:17:05.661Z,14.83
2019-03-06T08:19:33.440Z,12.13
2019-03-06T08:22:06.208Z,13.60
2019-03-06T08:24:36.124Z,14.20
2019-03-06T08:27:03.384Z,14.20
2019-03-06T08:29:30.427Z,13.83
2019-03-06T08:31:57.444Z,15.50
2019-03-06T08:34:24.499Z,15.97
2019-03-06T08:36:51.576Z,15.90
2019-03-06T08:39:18.548Z,14.23
2019-03-06T08:41:45.680Z,13.53
2019-03-06T08:44:12.722Z,13.43
2019-03-06T08:46:39.874Z,13.53
2019-03-06T08:49:12.757Z,11.83
2019-03-06T08:51:45.663Z,11.93
2019-03-06T08:54:12.797Z,10.57
2019-03-06T08:56:45.784Z,11.50
2019-03-06T08:59:18.782Z,10.90
2019-03-06T09:01:46.649Z,9.97
2019-03-06T09:04:19.524Z,10.03
2019-03-06T09:07:02.440Z,10.27
2019-03-06T09:09:44.568Z,9.90
2019-03-06T09:12:27.367Z,9.93
2019-03-06T09:15:07.726Z,9.90
2019-03-06T09:17:35.384Z,11.50
2019-03-06T09:20:04.398Z,11.83
2019-03-06T09:22:33.374Z,7.97
2019-03-06T09:25:23.008Z,8.07
2019-03-06T09:28:16.342Z,8.07
2019-03-06T09:37:43.588Z,8.27
2019-03-06T09:40:51.854Z,6.67
2019-03-06T09:43:39.096Z,8.30
2019-03-06T09:46:24.946Z,8.33
2019-03-06T09:49:10.930Z,7.83
2019-03-06T09:51:33.486Z,7.23
2019-03-06T09:54:03.499Z,6.37
2019-03-06T09:56:33.414Z,8.27
2019-03-06T09:59:15.369Z,8.30
2019-03-06T10:02:06.471Z,7.47
2019-03-06T10:04:33.194Z,7.57
2019-03-06T10:07:17.526Z,7.13
2019-03-06T10:09:45.602Z,7.60
2019-03-06T10:12:12.748Z,7.27
2019-03-06T10:14:50.651Z,8.00
2019-03-06T10:17:23.440Z,9.13
2019-03-06T10:19:55.147Z,9.10
2019-03-06T10:22:24.594Z,7.97
2019-03-06T10:24:51.696Z,6.60
2019-03-06T10:27:18.800Z,7.60
2019-03-06T10:29:46.914Z,7.87
2019-03-06T10:32:14.016Z,6.77
2019-03-06T10:34:41.072Z,6.47
2019-03-06T10:37:08.337Z,7.90
2019-03-06T10:39:35.470Z,6.33
2019-03-06T10:42:02.541Z,4.33
2019-03-06T10:44:30.028Z,5.87
2019-03-06T10:46:56.736Z,5.97
2019-03-06T10:49:23.871Z,6.60
2019-03-06T10:51:50.917Z,5.13
2019-03-06T10:54:18.585Z,5.77
2019-03-06T10:56:45.761Z,7.37
2019-03-06T10:59:12.783Z,6.50
2019-03-06T11:01:39.955Z,5.97
2019-03-06T11:04:10.819Z,6.07
2019-03-06T11:06:38.957Z,6.50
2019-03-06T11:09:06.100Z,6.83
2019-03-06T11:11:33.279Z,6.60
2019-03-06T11:14:06.127Z,6.83
2019-03-06T11:16:30.204Z,6.73
2019-03-06T11:18:56.946Z,7.33
2019-03-06T11:21:23.895Z,6.37
2019-03-06T11:23:50.901Z,6.93
2019-03-06T11:26:18.061Z,7.30
2019-03-06T11:28:45.149Z,7.47
2019-03-06T11:31:12.244Z,7.43
2019-03-06T11:33:39.451Z,5.80
2019-03-06T11:36:06.622Z,5.80
2019-03-06T11:38:33.755Z,5.87
2019-03-06T11:41:00.802Z,6.37
2019-03-06T11:43:27.964Z,5.97
2019-03-06T11:45:55.001Z,5.75
2019-03-06T11:48:22.157Z,6.55
2019-03-06T11:50:49.202Z,6.00
2019-03-06T11:53:16.354Z,5.57
2019-03-06T11:55:43.506Z,5.70
2019-03-06T11:58:11.512Z,5.50
2019-03-06T12:00:38.619Z,5.63
2019-03-06T12:03:05.770Z,5.03
2019-03-06T12:05:32.798Z,5.47
2019-03-06T12:07:59.944Z,5.68
2019-03-06T12:10:27.131Z,5.50
2019-03-06T12:12:54.270Z,5.70
2019-03-06T12:15:21.424Z,6.03
2019-03-06T12:17:48.784Z,5.95
2019-03-06T12:20:16.031Z,5.80
2019-03-06T12:22:43.086Z,6.82
2019-03-06T12:25:10.245Z,6.45
2019-03-06T12:27:37.389Z,6.87
2019-03-06T12:30:04.484Z,6.10
2019-03-06T12:32:31.581Z,5.65
2019-03-06T12:34:58.638Z,6.60
2019-03-06T12:37:25.700Z,6.43
2019-03-06T12:39:52.728Z,7.12
2019-03-06T12:42:19.880Z,5.70
2019-03-06T12:44:46.929Z,6.30
2019-03-06T12:47:14.078Z,6.30
2019-03-06T12:49:41.068Z,6.35
2019-03-06T12:52:09.610Z,6.97
2019-03-06T12:54:36.704Z,5.90
2019-03-06T12:57:03.759Z,6.22
2019-03-06T12:59:31.370Z,6.82
2019-03-06T13:01:58.142Z,6.28
2019-03-06T13:04:25.159Z,7.97
2019-03-06T13:06:52.312Z,7.32
2019-03-06T13:09:19.463Z,4.50
2019-03-06T13:11:46.523Z,6.60
2019-03-06T13:14:13.661Z,6.97
2019-03-06T13:16:58.525Z,8.27
2019-03-06T13:19:50.074Z,7.87
2019-03-06T13:22:19.044Z,7.68
2019-03-06T13:24:46.106Z,8.20
2019-03-06T13:27:13.250Z,8.48
2019-03-06T13:29:57.587Z,10.68
2019-03-06T13:32:24.767Z,12.80
2019-03-06T13:34:52.685Z,11.82
2019-03-06T13:37:19.055Z,11.65
2019-03-06T13:39:46.052Z,12.52
2019-03-06T13:42:13.020Z,13.57
2019-03-06T13:44:40.096Z,12.55
2019-03-06T13:47:07.245Z,13.07
2019-03-06T13:49:34.297Z,14.18
2019-03-06T13:52:05.867Z,15.88
2019-03-06T13:54:33.001Z,16.02
2019-03-06T13:57:00.873Z,17.62
2019-03-06T13:59:27.971Z,12.90
2019-03-06T14:01:55.116Z,16.23
2019-03-06T14:04:26.380Z,17.85
2019-03-06T14:06:53.470Z,19.85
2019-03-06T14:09:20.514Z,20.08
2019-03-06T14:11:47.771Z,20.50
2019-03-06T14:14:14.821Z,20.45
2019-03-06T14:16:41.879Z,21.77
2019-03-06T14:21:50.508Z,24.20
2019-03-06T14:24:17.658Z,25.60
2019-03-06T14:26:44.703Z,24.73
2019-03-06T14:29:11.757Z,22.02
2019-03-06T14:31:38.906Z,23.50
2019-03-06T14:34:06.703Z,19.75
2019-03-06T14:36:33.819Z,20.40
2019-03-06T14:39:01.039Z,19.98
2019-03-06T14:41:28.189Z,21.73
2019-03-06T14:43:55.379Z,21.15
2019-03-06T14:46:22.422Z,14.90
2019-03-06T14:48:50.095Z,18.12
2019-03-06T14:51:17.139Z,18.62
2019-03-06T14:53:45.007Z,18.83
2019-03-06T14:56:12.097Z,20.02
2019-03-06T14:58:39.310Z,21.23
2019-03-06T15:01:06.407Z,21.03
2019-03-06T15:03:33.503Z,22.30
2019-03-06T15:06:00.655Z,18.98
2019-03-06T15:08:27.609Z,19.77
2019-03-06T15:10:54.649Z,17.73
2019-03-06T15:13:21.802Z,18.35
2019-03-06T15:15:48.864Z,16.83
2019-03-06T15:21:15.715Z,16.62
2019-03-06T15:23:43.463Z,17.73
2019-03-06T15:26:10.596Z,15.35
2019-03-06T15:28:37.683Z,14.68
2019-03-06T15:31:04.931Z,14.52
2019-03-06T15:33:31.986Z,15.10
2019-03-06T15:35:59.049Z,16.08
2019-03-06T15:38:28.630Z,15.40
2019-03-06T15:40:55.789Z,16.23
2019-03-06T15:43:23.356Z,16.67
2019-03-06T15:45:50.398Z,18.90
2019-03-06T15:48:17.658Z,21.45
2019-03-06T15:50:44.710Z,21.13
2019-03-06T15:53:12.115Z,22.73
2019-03-06T15:55:39.209Z,22.98
2019-03-06T15:58:06.225Z,24.17
2019-03-06T16:00:46.337Z,25.55
2019-03-06T16:03:07.324Z,26.27
2019-03-06T16:05:35.703Z,27.50
2019-03-06T16:08:02.852Z,28.43
2019-03-06T16:10:29.896Z,30.73
2019-03-06T16:12:57.082Z,29.37
2019-03-06T16:15:24.198Z,32.80
2019-03-06T16:17:51.266Z,30.33
2019-03-06T16:20:18.500Z,33.40
2019-03-06T16:22:45.549Z,35.57
2019-03-06T16:25:12.650Z,34.43
2019-03-06T16:27:39.850Z,34.07
2019-03-06T16:30:08.845Z,34.43
2019-03-06T16:32:36.026Z,33.53
2019-03-06T16:35:04.066Z,34.77
2019-03-06T16:37:31.124Z,33.83
2019-03-06T16:39:58.988Z,35.87
2019-03-06T16:42:26.039Z,37.20
2019-03-06T16:44:53.286Z,37.83
2019-03-06T16:47:23.263Z,38.77
2019-03-06T16:49:52.507Z,39.93
2019-03-06T16:52:21.094Z,40.27
2019-03-06T16:54:48.199Z,39.27
2019-03-06T16:57:18.666Z,30.57
2019-03-06T16:59:45.940Z,38.33
2019-03-06T17:02:13.081Z,39.27
2019-03-06T17:04:40.735Z,38.63
2019-03-06T17:07:08.501Z,38.77
2019-03-06T17:09:35.652Z,38.17
2019-03-06T17:12:04.646Z,38.47
2019-03-06T17:14:31.796Z,37.60
2019-03-06T17:16:59.568Z,38.27
2019-03-06T17:19:46.567Z,39.50
2019-03-06T17:22:13.633Z,39.53
2019-03-06T17:24:40.988Z,37.50
2019-03-06T17:27:09.819Z,39.13
2019-03-06T17:29:37.030Z,41.17
2019-03-06T17:32:27.835Z,41.67
2019-03-06T17:34:57.860Z,40.27
2019-03-06T17:37:24.851Z,38.87
2019-03-06T17:39:51.864Z,39.53
2019-03-06T17:42:19.111Z,40.90
2019-03-06T17:44:46.457Z,41.13
2019-03-06T17:47:13.502Z,41.30
2019-03-06T17:49:40.555Z,40.53
2019-03-06T17:52:07.708Z,40.57
2019-03-06T17:54:35.740Z,40.63
2019-03-06T17:57:02.780Z,39.27
2019-03-06T17:59:29.829Z,40.03
2019-03-06T18:01:56.926Z,40.83
2019-03-06T18:04:23.969Z,40.70
2019-03-06T18:06:51.120Z,40.30
2019-03-06T18:09:37.226Z,39.63
2019-03-06T18:12:04.324Z,41.63
2019-03-06T18:14:31.419Z,40.83
2019-03-06T18:17:13.654Z,40.17
2019-03-06T18:19:42.817Z,40.97
2019-03-06T18:22:09.939Z,42.87
2019-03-06T18:24:37.017Z,42.33
2019-03-06T18:27:04.192Z,43.37
2019-03-06T18:29:31.420Z,45.87
2019-03-06T18:31:58.410Z,45.73
2019-03-06T18:34:25.523Z,43.63
2019-03-06T18:36:52.567Z,44.27
2019-03-06T18:39:19.667Z,42.87
2019-03-06T18:41:46.780Z,41.60
2019-03-06T18:44:13.918Z,43.83
2019-03-06T18:46:40.970Z,43.80
2019-03-06T18:49:08.014Z,42.63
2019-03-06T18:51:35.062Z,42.50
2019-03-06T18:54:02.214Z,43.40
2019-03-06T18:56:29.267Z,42.97
2019-03-06T18:58:56.312Z,43.77
2019-03-06T19:01:23.461Z,41.83
2019-03-06T19:03:50.511Z,39.63
2019-03-06T19:06:17.662Z,38.67
2019-03-06T19:09:07.309Z,38.23
2019-03-06T19:11:54.439Z,38.40
2019-03-06T19:14:21.507Z,36.03
2019-03-06T19:17:03.002Z,38.20
2019-03-06T19:19:30.150Z,40.47
2019-03-06T19:21:58.320Z,45.90
2019-03-06T19:24:25.375Z,44.10
2019-03-06T19:26:52.419Z,41.87
2019-03-06T19:29:19.466Z,41.87
2019-03-06T19:31:46.521Z,41.33
2019-03-06T19:34:13.563Z,38.57
2019-03-06T19:36:40.612Z,41.07
2019-03-06T19:39:07.767Z,40.07
2019-03-06T19:41:34.922Z,40.03
2019-03-06T19:44:02.787Z,38.70
2019-03-06T19:46:31.600Z,40.47
2019-03-06T19:48:58.727Z,44.10
2019-03-06T19:51:25.771Z,39.23
2019-03-06T19:53:52.785Z,39.30
2019-03-06T19:56:19.873Z,38.63
2019-03-06T19:58:47.224Z,38.30
2019-03-06T20:01:14.273Z,39.17
2019-03-06T20:06:40.675Z,43.87
2019-03-06T20:09:13.720Z,40.27
2019-03-06T20:11:40.764Z,38.93
2019-03-06T20:14:07.845Z,37.37
2019-03-06T20:16:34.984Z,39.97
2019-03-06T20:19:03.037Z,37.57
2019-03-06T20:21:31.651Z,36.60
2019-03-06T20:23:58.779Z,37.13
2019-03-06T20:26:25.956Z,35.77
2019-03-06T20:28:53.540Z,33.70
2019-03-06T20:31:20.652Z,32.97
2019-03-06T20:33:47.746Z,32.30
2019-03-06T20:36:16.069Z,28.87
2019-03-06T20:38:43.222Z,29.90
2019-03-06T20:41:10.264Z,29.63
2019-03-06T20:43:37.531Z,31.03
2019-03-06T20:46:05.715Z,29.10
2019-03-06T20:48:52.572Z,27.77
2019-03-06T20:51:49.213Z,27.03
2019-03-06T20:54:42.899Z,29.27
2019-03-06T20:57:09.986Z,28.53
2019-03-06T20:59:37.130Z,26.97
2019-03-06T21:02:05.000Z,27.27
2019-03-06T21:04:32.037Z,29.17
2019-03-06T21:07:00.587Z,26.73
2019-03-06T21:09:27.699Z,28.37
2019-03-06T21:11:54.825Z,28.17
2019-03-06T21:14:21.868Z,28.17
2019-03-06T21:16:48.917Z,27.17
2019-03-06T21:19:15.983Z,26.83
2019-03-06T21:21:43.017Z,27.20
2019-03-06T21:24:10.294Z,26.40
2019-03-06T21:26:37.317Z,27.50
2019-03-06T21:29:04.468Z,25.57
2019-03-06T21:31:31.520Z,25.57
2019-03-06T21:33:59.491Z,26.17
2019-03-06T21:36:26.483Z,26.53
2019-03-06T21:38:53.586Z,27.63
2019-03-06T21:41:20.738Z,27.57
2019-03-06T21:43:47.789Z,27.30
2019-03-06T21:46:15.054Z,26.83
2019-03-06T21:48:42.032Z,27.50
2019-03-06T21:51:09.140Z,39.90
2019-03-06T21:53:39.166Z,34.07
2019-03-06T21:56:05.093Z,26.80
2019-03-06T21:58:32.129Z,26.60
2019-03-06T22:00:59.174Z,27.07
2019-03-06T22:03:26.229Z,23.43
2019-03-06T22:05:54.251Z,25.13
2019-03-06T22:08:21.341Z,24.70
2019-03-06T22:10:48.490Z,24.83
2019-03-06T22:13:15.846Z,25.53
2019-03-06T22:15:42.918Z,26.00
2019-03-06T22:18:23.064Z,26.00
2019-03-06T22:20:50.110Z,25.83
2019-03-06T22:23:19.187Z,25.97
2019-03-06T22:25:44.606Z,24.80
2019-03-06T22:28:11.657Z,24.17
2019-03-06T22:30:39.223Z,24.07
2019-03-06T22:33:06.267Z,23.57
2019-03-06T22:35:33.319Z,26.20
2019-03-06T22:38:00.566Z,24.00
2019-03-06T22:40:27.626Z,23.67
2019-03-06T22:42:54.669Z,24.70
2019-03-06T22:45:22.036Z,25.27
2019-03-06T22:47:49.073Z,24.27
2019-03-06T22:50:16.115Z,24.90
2019-03-06T22:52:45.011Z,24.50
2019-03-06T22:55:14.925Z,23.40
2019-03-06T22:57:41.977Z,24.27
2019-03-06T23:00:14.911Z,23.83
2019-03-06T23:02:42.009Z,23.40
2019-03-06T23:05:09.094Z,22.90
2019-03-06T23:07:36.207Z,21.53
2019-03-06T23:10:03.364Z,22.20
2019-03-06T23:12:30.412Z,22.70
2019-03-06T23:14:57.459Z,24.07
2019-03-06T23:17:24.966Z,23.37
2019-03-06T23:19:52.712Z,22.67
2019-03-06T23:22:19.217Z,22.60
2019-03-06T23:24:46.369Z,23.53
2019-03-06T23:27:14.241Z,23.90
2019-03-06T23:29:41.395Z,22.70
2019-03-06T23:32:08.434Z,23.20
2019-03-06T23:34:35.585Z,22.73
2019-03-06T23:37:02.633Z,22.87
2019-03-06T23:39:29.687Z,24.40
2019-03-06T23:41:56.846Z,21.80
2019-03-06T23:44:23.881Z,23.70
2019-03-06T23:46:50.930Z,22.97
2019-03-06T23:49:17.983Z,23.03
2019-03-06T23:51:50.972Z,22.67
2019-03-06T23:54:19.455Z,21.80
2019-03-06T23:56:45.169Z,22.23
2019-03-06T23:59:12.155Z,22.47
